Time;durP1;ratioP1;P1;durP2;ratioP2;P2;SDS_P1;SDS_P2;PMS_P1;PMS_P2;Temp;Humidity;BMP_temperature;BMP_pressure;BME280_temperature;BME280_humidity;BME280_pressure;Samples;Min_cycle;Max_cycle;Signal;HPM_P1;HPM_P2
2022/12/20 00:05:27;;;;;;;52.15;8.40;;;;;;;21.27;32.40;102614.91;20824268;28;20037;-60
2022/12/20 00:15:30;;;;;;;51.78;7.40;;;;;;;21.25;31.99;102623.47;20802655;28;20042;-61
2022/12/20 00:25:31;;;;;;;48.67;5.80;;;;;;;21.22;31.83;102621.19;20808604;28;20111;-60
2022/12/20 00:35:35;;;;;;;36.50;6.07;;;;;;;21.20;31.68;102609.44;20790162;28;20045;-61
2022/12/20 00:45:36;;;;;;;32.85;5.00;;;;;;;21.26;31.64;102629.91;20825950;28;20092;-60
2022/12/20 00:55:45;;;;;;;34.58;4.95;;;;;;;21.29;31.76;102658.09;20828772;28;20041;-62
2022/12/20 01:05:58;;;;;;;15.40;4.67;;;;;;;21.37;32.11;102678.38;20875839;28;20438;-61
2022/12/20 01:16:14;;;;;;;16.58;4.32;;;;;;;21.41;32.08;102693.50;20813930;28;20150;-61
2022/12/20 01:26:21;;;;;;;14.20;3.35;;;;;;;21.50;31.54;102689.25;20824132;28;20052;-63
2022/12/20 01:36:26;;;;;;;18.80;3.47;;;;;;;21.55;31.69;102687.44;20827397;28;20034;-61
2022/12/20 01:46:33;;;;;;;16.67;3.13;;;;;;;21.70;31.36;102700.84;20813565;28;20034;-61
2022/12/20 01:56:36;;;;;;;11.30;2.42;;;;;;;21.78;30.93;102722.78;20822408;28;20068;-60
2022/12/20 02:06:37;;;;;;;8.27;2.33;;;;;;;21.77;31.19;102703.53;20824454;28;20393;-61
2022/12/20 02:16:55;;;;;;;6.53;2.13;;;;;;;21.89;30.96;102734.16;20833844;28;20064;-60
2022/12/20 02:27:26;;;;;;;8.15;2.30;;;;;;;21.92;31.18;102754.03;20818756;28;20053;-61
2022/12/20 02:37:28;;;;;;;7.47;2.10;;;;;;;21.86;30.82;102751.38;20816065;28;20045;-60
2022/12/20 02:47:36;;;;;;;5.65;1.70;;;;;;;21.97;30.67;102770.03;20834287;28;20045;-62
2022/12/20 02:58:05;;;;;;;7.25;2.58;;;;;;;21.94;30.45;102771.34;20830055;28;20095;-62
2022/12/20 03:08:07;;;;;;;6.60;1.52;;;;;;;21.96;30.56;102790.63;20826384;28;20439;-62
2022/12/20 03:18:08;;;;;;;4.82;1.80;;;;;;;21.91;30.95;102787.72;20814498;28;20492;-63
2022/12/20 03:28:09;;;;;;;10.80;1.92;;;;;;;21.96;30.93;102768.34;20831097;28;20116;-62
2022/12/20 03:38:11;;;;;;;8.07;1.73;;;;;;;21.98;30.74;102774.50;20796353;28;20562;-60
2022/12/20 03:48:12;;;;;;;9.50;1.65;;;;;;;22.02;31.16;102767.34;20829920;28;20041;-61
2022/12/20 03:58:13;;;;;;;10.20;1.58;;;;;;;22.13;31.66;102757.28;20829689;28;20045;-62
2022/12/20 04:08:33;;;;;;;8.02;2.20;;;;;;;22.18;31.73;102754.66;20808971;28;20058;-62
2022/12/20 04:18:34;;;;;;;5.57;1.63;;;;;;;22.20;31.72;102747.72;20823481;28;20054;-61
2022/12/20 04:28:36;;;;;;;4.22;1.20;;;;;;;22.19;31.45;102754.38;20825976;28;20048;-61
2022/12/20 04:38:37;;;;;;;6.00;1.83;;;;;;;22.23;31.92;102740.81;20823582;28;20049;-62
2022/12/20 04:48:39;;;;;;;4.45;1.65;;;;;;;22.18;31.72;102733.19;20828005;28;20087;-61
2022/12/20 04:58:41;;;;;;;3.88;1.30;;;;;;;22.20;31.57;102746.88;20825779;28;20118;-62
2022/12/20 05:08:42;;;;;;;5.90;1.48;;;;;;;22.19;31.80;102732.06;20826427;28;20485;-62
2022/12/20 05:18:43;;;;;;;2.13;1.13;;;;;;;22.18;31.59;102735.13;20792167;28;20046;-62
2022/12/20 05:28:45;;;;;;;2.78;1.33;;;;;;;22.14;31.84;102737.56;20790800;28;20038;-62
2022/12/20 05:38:49;;;;;;;2.10;1.20;;;;;;;22.11;31.79;102732.41;20839094;28;20042;-61
2022/12/20 05:48:50;;;;;;;2.33;1.00;;;;;;;22.07;31.79;102742.38;20840242;28;20542;-60
2022/12/20 05:58:57;;;;;;;2.08;0.95;;;;;;;22.02;31.67;102739.47;20838119;28;20077;-62
2022/12/20 06:09:00;;;;;;;1.88;1.17;;;;;;;21.97;31.44;102736.56;20838781;28;20041;-62
2022/12/20 06:19:01;;;;;;;1.38;1.08;;;;;;;21.94;31.33;102749.06;20829860;28;20459;-62
2022/12/20 06:29:08;;;;;;;2.83;1.10;;;;;;;21.92;31.71;102756.81;20837685;28;20080;-61
2022/12/20 06:39:09;;;;;;;1.20;0.93;;;;;;;21.92;31.70;102767.13;20836642;28;20038;-61
2022/12/20 06:49:10;;;;;;;1.48;0.98;;;;;;;21.90;31.43;102769.28;20835221;28;20401;-61
2022/12/20 06:59:12;;;;;;;3.45;0.98;;;;;;;21.90;31.33;102780.44;20832019;28;20053;-61
2022/12/20 07:09:13;;;;;;;1.80;0.88;;;;;;;21.88;31.43;102777.91;20827049;28;20047;-62
2022/12/20 07:19:14;;;;;;;0.95;0.88;;;;;;;21.85;31.50;102788.69;20793341;28;20100;-61
2022/12/20 07:29:16;;;;;;;1.50;1.20;;;;;;;21.83;31.47;102786.16;20815449;28;20554;-61
2022/12/20 07:39:18;;;;;;;1.00;0.90;;;;;;;21.83;31.41;102803.72;20809896;28;20077;-61
2022/12/20 07:49:19;;;;;;;1.20;1.00;;;;;;;21.79;31.39;102818.38;20828306;28;20042;-61
2022/12/20 07:59:29;;;;;;;1.17;0.70;;;;;;;21.78;31.11;102828.69;20829420;28;20076;-61
2022/12/20 08:09:37;;;;;;;0.63;0.57;;;;;;;21.74;31.17;102827.47;20829567;28;20119;-61
2022/12/20 08:19:38;;;;;;;0.85;0.70;;;;;;;21.67;31.00;102810.03;20827006;28;20049;-61
2022/12/20 08:29:40;;;;;;;2.17;1.02;;;;;;;21.69;31.56;102824.56;20817544;28;20037;-61
2022/12/20 08:39:41;;;;;;;0.88;0.73;;;;;;;21.66;31.43;102827.81;20820093;28;20126;-61
2022/12/20 08:49:42;;;;;;;0.65;0.65;;;;;;;21.61;31.54;102821.28;20824825;28;20100;-60
2022/12/20 08:59:43;;;;;;;0.80;0.68;;;;;;;21.59;31.40;102829.88;20824609;28;20060;-61
2022/12/20 09:09:45;;;;;;;0.70;0.70;;;;;;;21.60;31.39;102844.66;20834457;28;20447;-61
2022/12/20 09:19:47;;;;;;;0.70;0.70;;;;;;;21.53;31.45;102847.53;20820872;28;20096;-60
2022/12/20 09:29:49;;;;;;;0.85;0.75;;;;;;;21.46;31.24;102869.09;20838130;28;20037;-61
2022/12/20 09:39:50;;;;;;;3.03;0.70;;;;;;;21.48;31.07;102881.66;20840132;28;20111;-60
2022/12/20 09:49:58;;;;;;;0.80;0.60;;;;;;;21.46;30.78;102894.16;20782230;28;20041;-60
2022/12/20 10:00:00;;;;;;;0.70;0.70;;;;;;;21.46;31.05;102913.66;20799340;28;20326;-60
2022/12/20 10:10:31;;;;;;;0.85;0.60;;;;;;;21.42;31.20;102918.84;20837137;28;20049;-61
2022/12/20 10:20:59;;;;;;;0.82;0.77;;;;;;;21.43;31.11;102906.59;20837549;28;20045;-60
2022/12/20 10:31:06;;;;;;;1.02;0.80;;;;;;;21.44;30.80;102919.47;20837101;28;20068;-62
2022/12/20 10:41:17;;;;;;;0.80;0.80;;;;;;;21.42;30.76;102901.28;20835678;28;20558;-62
2022/12/20 10:51:21;;;;;;;0.60;0.60;;;;;;;21.40;30.96;102901.53;20818235;28;20036;-61
2022/12/20 11:01:27;;;;;;;0.60;0.60;;;;;;;21.37;30.78;102910.34;20823027;28;20104;-61
2022/12/20 11:11:29;;;;;;;1.05;0.77;;;;;;;21.36;30.74;102916.16;20825476;28;20095;-62
2022/12/20 11:21:39;;;;;;;0.82;0.65;;;;;;;21.31;30.78;102928.88;20779472;28;20041;-61
2022/12/20 11:32:00;;;;;;;0.68;0.60;;;;;;;21.29;31.29;102947.69;20827778;28;20072;-61
2022/12/20 11:42:15;;;;;;;1.13;0.80;;;;;;;21.26;31.12;102973.25;20790333;28;20068;-61
2022/12/20 11:52:40;;;;;;;2.65;0.70;;;;;;;21.23;31.03;102979.28;20832655;28;20370;-62
2022/12/20 12:02:52;;;;;;;1.13;0.70;;;;;;;21.24;30.86;102985.69;20830457;28;20099;-61
2022/12/20 12:13:17;;;;;;;0.80;0.80;;;;;;;21.18;30.82;102984.69;20827064;28;20547;-61
2022/12/20 12:23:25;;;;;;;0.80;0.80;;;;;;;21.20;30.51;102990.03;20828639;28;20439;-61
2022/12/20 12:34:04;;;;;;;0.80;0.80;;;;;;;21.12;30.73;102999.56;20818983;28;20041;-61
2022/12/20 12:44:17;;;;;;;1.73;0.65;;;;;;;21.18;30.68;102993.03;20806347;28;20088;-62
2022/12/20 12:54:29;;;;;;;1.20;0.73;;;;;;;21.15;30.50;102987.09;20801320;28;20038;-63
2022/12/20 13:04:59;;;;;;;0.90;0.60;;;;;;;21.14;30.78;102999.31;20823257;28;20071;-62
2022/12/20 13:15:00;;;;;;;;;;;;;;;21.21;30.98;103000.94;20825662;28;20095;-61
2022/12/20 13:25:23;;;;;;;0.93;0.80;;;;;;;21.26;30.76;103003.03;20816123;28;19921;-61
2022/12/20 13:35:30;;;;;;;0.90;0.70;;;;;;;21.20;30.61;102990.88;20798325;28;20045;-61
2022/12/20 13:45:32;;;;;;;2.00;0.65;;;;;;;21.16;30.50;102997.97;20815392;28;20095;-61
2022/12/20 13:55:38;;;;;;;3.35;1.00;;;;;;;21.21;30.68;103011.19;20833534;28;20049;-61
2022/12/20 14:05:39;;;;;;;1.52;1.00;;;;;;;21.17;30.73;103016.41;20839760;28;20045;-60
2022/12/20 14:15:41;;;;;;;4.13;1.00;;;;;;;21.16;30.77;103014.69;20835044;28;20183;-61
2022/12/20 14:25:50;;;;;;;2.17;1.13;;;;;;;21.17;31.10;103027.53;20805573;28;20025;-61
2022/12/20 14:35:51;;;;;;;3.65;1.02;;;;;;;21.20;31.00;103032.63;20826652;28;20049;-60
2022/12/20 14:46:16;;;;;;;0.95;0.80;;;;;;;21.15;31.08;103023.28;20827930;28;20050;-61
2022/12/20 14:56:21;;;;;;;1.20;1.02;;;;;;;21.18;30.86;103034.81;20833217;28;20110;-61
2022/12/20 15:07:02;;;;;;;3.28;1.10;;;;;;;21.15;31.48;103035.25;20828131;28;20401;-61
2022/12/20 15:17:14;;;;;;;4.68;1.00;;;;;;;21.31;30.95;103031.06;20697131;28;20049;-61
2022/12/20 15:27:23;;;;;;;1.48;1.15;;;;;;;21.36;30.79;103010.84;20813799;28;20068;-59
2022/12/20 15:37:24;;;;;;;;;;;;;;;21.48;31.34;103011.75;20829989;28;20046;-60
2022/12/20 15:47:25;;;;;;;10.43;1.15;;;;;;;21.56;30.74;103003.91;20816590;28;19978;-60
2022/12/20 15:57:27;;;;;;;6.22;1.00;;;;;;;21.62;30.85;102996.53;20811754;28;20037;-59
2022/12/20 16:07:29;;;;;;;1.52;1.00;;;;;;;21.57;30.72;102979.69;20824626;28;20109;-60
2022/12/20 16:17:30;;;;;;;1.55;0.88;;;;;;;21.69;30.89;102994.53;20800140;28;20041;-60
2022/12/20 16:27:31;;;;;;;2.08;0.77;;;;;;;21.74;30.54;102977.94;20820210;28;20037;-59
2022/12/20 16:37:33;;;;;;;1.85;0.85;;;;;;;21.78;30.87;102968.03;20816895;28;20045;-60
2022/12/20 16:47:34;;;;;;;1.92;0.90;;;;;;;21.80;30.63;102940.75;20819961;28;20043;-60
2022/12/20 16:57:36;;;;;;;1.38;0.90;;;;;;;21.83;30.65;102929.13;20813220;28;20029;-59
2022/12/20 17:07:37;;;;;;;4.95;1.00;;;;;;;21.83;30.37;102915.19;20811390;28;20099;-59
2022/12/20 17:17:38;;;;;;;3.88;1.15;;;;;;;21.87;30.48;102898.00;20752450;28;20064;-59
2022/12/20 17:27:42;;;;;;;5.35;1.25;;;;;;;21.85;30.17;102894.59;20748826;28;20049;-60
2022/12/20 17:37:47;;;;;;;5.10;1.30;;;;;;;21.70;30.08;102887.53;20760635;28;20037;-60
2022/12/20 17:47:49;;;;;;;3.25;1.40;;;;;;;21.75;30.19;102901.59;20760026;28;20497;-60
2022/12/20 17:57:54;;;;;;;2.75;1.48;;;;;;;21.78;30.52;102878.00;20758518;28;20046;-60
2022/12/20 18:07:55;;;;;;;2.40;1.20;;;;;;;21.81;30.17;102860.81;20758183;28;20072;-60
2022/12/20 18:17:57;;;;;;;3.10;1.05;;;;;;;21.82;30.17;102835.47;20757377;28;20046;-60
2022/12/20 18:27:58;;;;;;;2.60;1.05;;;;;;;21.82;30.25;102824.31;20756075;28;20042;-60
2022/12/20 18:37:59;;;;;;;1.58;0.88;;;;;;;21.81;30.28;102819.84;20755850;28;20049;-60
2022/12/20 18:48:01;;;;;;;4.03;1.00;;;;;;;21.82;30.12;102807.59;20754834;28;20092;-60
2022/12/20 18:58:02;;;;;;;1.80;1.42;;;;;;;21.80;30.14;102793.03;20754115;28;20104;-60
2022/12/20 19:08:04;;;;;;;1.73;0.98;;;;;;;21.77;29.97;102790.75;20753502;28;20054;-60
2022/12/20 19:18:08;;;;;;;2.15;1.15;;;;;;;21.69;29.96;102779.13;20752493;28;20038;-60
2022/12/20 19:28:09;;;;;;;1.50;1.00;;;;;;;21.70;29.97;102776.09;20751683;28;20033;-59
2022/12/20 19:38:11;;;;;;;4.38;1.20;;;;;;;21.63;30.07;102780.94;20750879;28;20436;-61
2022/12/20 19:48:13;;;;;;;6.10;1.00;;;;;;;21.65;30.11;102789.06;20749421;28;20049;-62
2022/12/20 19:58:14;;;;;;;8.75;1.30;;;;;;;21.66;30.15;102783.22;20749733;28;20453;-65
2022/12/20 20:08:15;;;;;;;3.33;1.15;;;;;;;21.69;30.14;102802.25;20798141;28;20041;-65
2022/12/20 20:18:19;;;;;;;13.70;1.75;;;;;;;21.66;30.32;102813.88;20827488;28;20551;-65
2022/12/20 20:28:22;;;;;;;6.93;1.42;;;;;;;21.61;30.53;102816.53;20842915;28;20037;-65
2022/12/20 20:38:25;;;;;;;7.03;1.35;;;;;;;21.64;30.17;102835.56;20830514;28;20393;-66
2022/12/20 20:48:26;;;;;;;21.83;2.42;;;;;;;21.65;30.40;102862.34;20825197;28;20076;-66
2022/12/20 20:58:28;;;;;;;33.85;3.50;;;;;;;21.68;30.56;102867.44;20823751;28;20033;-65
2022/12/20 21:08:29;;;;;;;41.50;4.18;;;;;;;21.70;31.08;102862.47;20758327;28;1828225;-64
2022/12/20 21:18:30;;;;;;;41.60;4.03;;;;;;;21.69;30.64;102858.00;20825414;28;20176;-64
2022/12/20 21:28:32;;;;;;;194.63;15.13;;;;;;;21.75;30.76;102889.63;20826652;28;20096;-65
2022/12/20 21:38:33;;;;;;;145.75;13.82;;;;;;;21.80;30.76;102876.66;20824431;28;20563;-64
2022/12/20 21:48:35;;;;;;;134.13;14.88;;;;;;;21.86;30.71;102885.16;20825166;28;20037;-64
2022/12/20 21:58:39;;;;;;;111.25;14.55;;;;;;;21.81;30.88;102889.53;20824495;28;20091;-64
2022/12/20 22:08:43;;;;;;;121.85;14.35;;;;;;;21.78;31.00;102906.72;20820635;28;20041;-66
2022/12/20 22:18:51;;;;;;;74.57;12.00;;;;;;;21.84;30.82;102910.47;20835108;28;20057;-64
2022/12/20 22:28:55;;;;;;;68.10;10.17;;;;;;;21.86;30.54;102910.25;20837748;28;20461;-65
2022/12/20 22:38:57;;;;;;;55.15;9.13;;;;;;;21.82;30.14;102919.09;20837770;28;20032;-65
2022/12/20 22:49:00;;;;;;;41.92;7.20;;;;;;;21.82;30.40;102934.97;20836815;28;20457;-65
2022/12/20 22:59:01;;;;;;;97.55;12.60;;;;;;;21.73;30.53;102920.50;20811048;28;20041;-65
2022/12/20 23:09:03;;;;;;;103.75;12.93;;;;;;;21.72;30.53;102924.41;20832027;28;20046;-69
2022/12/20 23:19:04;;;;;;;136.35;16.23;;;;;;;21.75;30.75;102948.97;20823513;28;20440;-66
2022/12/20 23:29:07;;;;;;;120.10;16.00;;;;;;;21.70;30.70;102951.63;20824525;28;20041;-66
2022/12/20 23:39:08;;;;;;;149.07;21.10;;;;;;;21.72;30.83;102929.97;20807069;28;20061;-65
2022/12/20 23:49:09;;;;;;;151.38;24.88;;;;;;;21.73;30.74;102928.03;20801648;28;20480;-68
2022/12/20 23:59:14;;;;;;;136.68;25.23;;;;;;;21.71;31.14;102938.53;20823009;28;20049;-65
